Canefield Airport

Fair with slight dust haze
31oC (88oF)

Fair with slight dust haze


Winds: Easterly @ 07kts / 13km/h

Humidity: 58%

Barometric Pressure: 1014 mb

Accumulated Rainfall for July: 34.5 mm

Updated: 15:00 local time (19:00 UTC)

Douglas-Charles Airport

Cloudy with slight dust haze
30oC (86oF)

Cloudy with slight dust haze


Winds: East south easterly @ 11kts / 20km/h

Humidity: 70%

Barometric Pressure: 1016 mb

Accumulated Rainfall for July: 45.2 mm

Updated: 15:00 local time (19:00 UTC)

Satellite Imagery

Satellite Imagery
Click image for larger view. (Source: National Hurricane Center).

Aviation Routine Report (METAR)

Douglas-Charles: METAR TDPD 101900Z 11011KT 9999 BKN018 30/24 Q1016=
Canefield: METAR TDCF 101900Z 10007KT 9999 FEW020 31/22 Q1014=